sensor_id;sensor_type;location;lat;lon;timestamp;pressure;altitude;pressure_sealevel;temperature;humidity
44872;BME280;30602;51.060;17.226;2023-09-30T00:01:58;101757.26;;;16.40;100.00
44872;BME280;30602;51.060;17.226;2023-09-30T00:05:26;101754.09;;;16.43;100.00
44872;BME280;30602;51.060;17.226;2023-09-30T00:09:14;101752.55;;;16.45;100.00
44872;BME280;30602;51.060;17.226;2023-09-30T00:13:43;101746.77;;;16.48;100.00
44872;BME280;30602;51.060;17.226;2023-09-30T00:17:53;101752.53;;;16.42;100.00
44872;BME280;30602;51.060;17.226;2023-09-30T00:21:43;101752.20;;;16.36;100.00
44872;BME280;30602;51.060;17.226;2023-09-30T00:25:42;101752.93;;;16.32;100.00
44872;BME280;30602;51.060;17.226;2023-09-30T00:29:23;101750.40;;;16.33;100.00
44872;BME280;30602;51.060;17.226;2023-09-30T00:33:26;101749.43;;;16.37;100.00
44872;BME280;30602;51.060;17.226;2023-09-30T00:37:03;101750.32;;;16.38;100.00
44872;BME280;30602;51.060;17.226;2023-09-30T00:41:02;101753.31;;;16.38;100.00
44872;BME280;30602;51.060;17.226;2023-09-30T00:45:18;101751.84;;;16.39;100.00
44872;BME280;30602;51.060;17.226;2023-09-30T00:49:03;101755.18;;;16.39;100.00
44872;BME280;30602;51.060;17.226;2023-09-30T00:52:33;101757.23;;;16.39;100.00
44872;BME280;30602;51.060;17.226;2023-09-30T00:56:45;101756.13;;;16.37;100.00
44872;BME280;30602;51.060;17.226;2023-09-30T01:00:28;101756.12;;;16.39;100.00
44872;BME280;30602;51.060;17.226;2023-09-30T01:03:52;101747.26;;;16.43;100.00
44872;BME280;30602;51.060;17.226;2023-09-30T01:07:20;101751.89;;;16.46;100.00
44872;BME280;30602;51.060;17.226;2023-09-30T01:11:08;101757.18;;;16.48;100.00
44872;BME280;30602;51.060;17.226;2023-09-30T01:14:35;101757.28;;;16.48;100.00
44872;BME280;30602;51.060;17.226;2023-09-30T01:18:40;101757.95;;;16.46;100.00
44872;BME280;30602;51.060;17.226;2023-09-30T01:22:06;101765.02;;;16.44;100.00
44872;BME280;30602;51.060;17.226;2023-09-30T01:25:49;101762.84;;;16.47;100.00
44872;BME280;30602;51.060;17.226;2023-09-30T01:29:13;101765.05;;;16.47;100.00
44872;BME280;30602;51.060;17.226;2023-09-30T01:32:58;101764.84;;;16.51;100.00
44872;BME280;30602;51.060;17.226;2023-09-30T01:37:08;101763.53;;;16.68;100.00
44872;BME280;30602;51.060;17.226;2023-09-30T01:40:52;101765.08;;;16.72;100.00
44872;BME280;30602;51.060;17.226;2023-09-30T01:44:34;101768.20;;;16.71;100.00
44872;BME280;30602;51.060;17.226;2023-09-30T01:51:52;101773.70;;;16.91;100.00
44872;BME280;30602;51.060;17.226;2023-09-30T01:56:23;101774.37;;;16.94;100.00
44872;BME280;30602;51.060;17.226;2023-09-30T02:00:20;101771.52;;;17.08;100.00
44872;BME280;30602;51.060;17.226;2023-09-30T02:03:50;101772.44;;;17.23;100.00
44872;BME280;30602;51.060;17.226;2023-09-30T02:07:14;101775.64;;;17.32;100.00
44872;BME280;30602;51.060;17.226;2023-09-30T02:10:44;101773.45;;;17.29;100.00
44872;BME280;30602;51.060;17.226;2023-09-30T02:14:27;101775.20;;;17.28;100.00
44872;BME280;30602;51.060;17.226;2023-09-30T02:17:52;101774.69;;;17.32;100.00
44872;BME280;30602;51.060;17.226;2023-09-30T02:21:44;101776.61;;;17.37;100.00
44872;BME280;30602;51.060;17.226;2023-09-30T02:25:54;101770.60;;;17.42;100.00
44872;BME280;30602;51.060;17.226;2023-09-30T02:29:19;101767.48;;;17.58;100.00
44872;BME280;30602;51.060;17.226;2023-09-30T02:33:00;101778.08;;;17.78;100.00
44872;BME280;30602;51.060;17.226;2023-09-30T02:37:00;101780.73;;;17.98;100.00
44872;BME280;30602;51.060;17.226;2023-09-30T02:41:01;101787.66;;;17.99;100.00
44872;BME280;30602;51.060;17.226;2023-09-30T02:48:35;101794.52;;;17.90;100.00
44872;BME280;30602;51.060;17.226;2023-09-30T02:52:24;101800.77;;;17.81;100.00
44872;BME280;30602;51.060;17.226;2023-09-30T02:56:42;101799.96;;;17.73;100.00
44872;BME280;30602;51.060;17.226;2023-09-30T03:00:50;101803.52;;;17.67;100.00
44872;BME280;30602;51.060;17.226;2023-09-30T03:05:08;101805.90;;;17.60;100.00
44872;BME280;30602;51.060;17.226;2023-09-30T03:08:33;101811.06;;;17.63;100.00
44872;BME280;30602;51.060;17.226;2023-09-30T03:11:59;101804.04;;;17.75;100.00
44872;BME280;30602;51.060;17.226;2023-09-30T03:15:47;101810.70;;;17.82;100.00
44872;BME280;30602;51.060;17.226;2023-09-30T03:19:13;101815.21;;;18.02;100.00
44872;BME280;30602;51.060;17.226;2023-09-30T03:23:10;101808.57;;;18.03;99.99
44872;BME280;30602;51.060;17.226;2023-09-30T03:26:59;101803.59;;;18.08;99.63
44872;BME280;30602;51.060;17.226;2023-09-30T03:30:40;101806.11;;;18.12;99.42
44872;BME280;30602;51.060;17.226;2023-09-30T03:34:25;101811.09;;;18.20;99.16
44872;BME280;30602;51.060;17.226;2023-09-30T03:38:01;101819.45;;;18.27;97.83
44872;BME280;30602;51.060;17.226;2023-09-30T03:42:07;101826.26;;;18.38;97.22
44872;BME280;30602;51.060;17.226;2023-09-30T03:46:50;101826.35;;;18.41;96.29
44872;BME280;30602;51.060;17.226;2023-09-30T03:50:30;101828.02;;;18.37;96.26
44872;BME280;30602;51.060;17.226;2023-09-30T03:54:49;101830.90;;;18.30;96.38
44872;BME280;30602;51.060;17.226;2023-09-30T03:59:23;101833.52;;;18.24;96.57
44872;BME280;30602;51.060;17.226;2023-09-30T04:02:49;101839.09;;;18.21;96.60
44872;BME280;30602;51.060;17.226;2023-09-30T04:06:49;101842.25;;;18.16;97.10
44872;BME280;30602;51.060;17.226;2023-09-30T04:10:46;101852.26;;;18.19;96.54
44872;BME280;30602;51.060;17.226;2023-09-30T04:14:10;101849.59;;;18.18;96.77
44872;BME280;30602;51.060;17.226;2023-09-30T04:17:33;101856.80;;;18.14;96.96
44872;BME280;30602;51.060;17.226;2023-09-30T04:21:19;101857.34;;;18.14;97.10
44872;BME280;30602;51.060;17.226;2023-09-30T04:25:37;101848.37;;;18.15;97.20
44872;BME280;30602;51.060;17.226;2023-09-30T04:29:54;101857.71;;;18.20;96.58
44872;BME280;30602;51.060;17.226;2023-09-30T04:34:13;101866.96;;;18.21;96.72
44872;BME280;30602;51.060;17.226;2023-09-30T04:37:38;101875.44;;;18.27;96.86
44872;BME280;30602;51.060;17.226;2023-09-30T04:41:24;101868.17;;;18.23;96.40
44872;BME280;30602;51.060;17.226;2023-09-30T04:44:47;101891.12;;;18.30;96.65
44872;BME280;30602;51.060;17.226;2023-09-30T04:48:19;101893.31;;;18.28;96.60
44872;BME280;30602;51.060;17.226;2023-09-30T04:52:12;101896.47;;;18.30;96.52
44872;BME280;30602;51.060;17.226;2023-09-30T04:56:03;101898.87;;;18.26;96.57
44872;BME280;30602;51.060;17.226;2023-09-30T04:59:58;101903.13;;;18.22;97.05
44872;BME280;30602;51.060;17.226;2023-09-30T05:03:24;101916.47;;;18.17;97.78
44872;BME280;30602;51.060;17.226;2023-09-30T05:06:45;101923.69;;;18.19;97.77
44872;BME280;30602;51.060;17.226;2023-09-30T05:10:31;101933.56;;;18.23;98.02
44872;BME280;30602;51.060;17.226;2023-09-30T05:14:13;101935.40;;;18.27;97.22
44872;BME280;30602;51.060;17.226;2023-09-30T05:18:09;101942.35;;;18.21;97.39
44872;BME280;30602;51.060;17.226;2023-09-30T05:21:28;101950.98;;;18.18;97.54
44872;BME280;30602;51.060;17.226;2023-09-30T05:24:52;101949.79;;;18.12;98.41
44872;BME280;30602;51.060;17.226;2023-09-30T05:28:34;101952.32;;;18.08;98.69
44872;BME280;30602;51.060;17.226;2023-09-30T05:32:14;101955.52;;;18.06;98.88
44872;BME280;30602;51.060;17.226;2023-09-30T05:35:45;101961.21;;;18.05;99.07
44872;BME280;30602;51.060;17.226;2023-09-30T05:39:28;101964.96;;;18.10;98.74
44872;BME280;30602;51.060;17.226;2023-09-30T05:42:53;101966.06;;;18.12;98.52
44872;BME280;30602;51.060;17.226;2023-09-30T05:46:36;101968.69;;;18.11;98.30
44872;BME280;30602;51.060;17.226;2023-09-30T05:49:58;101970.04;;;18.06;98.78
44872;BME280;30602;51.060;17.226;2023-09-30T05:53:53;101966.91;;;17.96;98.97
44872;BME280;30602;51.060;17.226;2023-09-30T05:57:49;101977.55;;;18.05;98.95
44872;BME280;30602;51.060;17.226;2023-09-30T06:01:54;101969.77;;;18.03;98.97
44872;BME280;30602;51.060;17.226;2023-09-30T06:05:41;101963.62;;;18.03;99.36
44872;BME280;30602;51.060;17.226;2023-09-30T06:09:27;101965.09;;;18.04;99.36
44872;BME280;30602;51.060;17.226;2023-09-30T06:13:21;101975.57;;;18.13;98.63
44872;BME280;30602;51.060;17.226;2023-09-30T06:16:47;101978.59;;;18.16;99.09
44872;BME280;30602;51.060;17.226;2023-09-30T06:20:11;101980.34;;;18.16;98.89
44872;BME280;30602;51.060;17.226;2023-09-30T06:23:45;101987.13;;;18.15;99.26
44872;BME280;30602;51.060;17.226;2023-09-30T06:27:26;101992.39;;;18.13;99.24
44872;BME280;30602;51.060;17.226;2023-09-30T06:31:34;101999.31;;;18.10;99.59
44872;BME280;30602;51.060;17.226;2023-09-30T06:39:35;102026.87;;;17.98;98.27
44872;BME280;30602;51.060;17.226;2023-09-30T06:43:09;102049.78;;;17.85;96.70
44872;BME280;30602;51.060;17.226;2023-09-30T06:47:16;102057.88;;;17.70;95.82
44872;BME280;30602;51.060;17.226;2023-09-30T06:51:43;102068.52;;;17.50;94.35
44872;BME280;30602;51.060;17.226;2023-09-30T06:55:27;102076.02;;;17.30;93.08
44872;BME280;30602;51.060;17.226;2023-09-30T06:59:01;102089.46;;;17.16;92.67
44872;BME280;30602;51.060;17.226;2023-09-30T07:03:19;102100.18;;;17.02;92.38
44872;BME280;30602;51.060;17.226;2023-09-30T07:07:16;102111.11;;;16.90;92.01
44872;BME280;30602;51.060;17.226;2023-09-30T07:10:43;102125.84;;;16.94;92.06
44872;BME280;30602;51.060;17.226;2023-09-30T07:14:37;102124.79;;;16.89;92.99
44872;BME280;30602;51.060;17.226;2023-09-30T07:18:47;102129.28;;;16.84;92.83
44872;BME280;30602;51.060;17.226;2023-09-30T07:23:16;102135.67;;;16.80;92.36
44872;BME280;30602;51.060;17.226;2023-09-30T07:26:40;102147.98;;;16.75;92.56
44872;BME280;30602;51.060;17.226;2023-09-30T07:30:51;102146.39;;;16.72;93.49
44872;BME280;30602;51.060;17.226;2023-09-30T07:34:18;102163.55;;;16.69;93.24
44872;BME280;30602;51.060;17.226;2023-09-30T07:37:39;102172.28;;;16.70;93.27
44872;BME280;30602;51.060;17.226;2023-09-30T07:41:04;102179.59;;;16.71;93.66
44872;BME280;30602;51.060;17.226;2023-09-30T07:44:51;102183.78;;;16.69;94.35
44872;BME280;30602;51.060;17.226;2023-09-30T07:48:15;102187.32;;;16.64;94.02
44872;BME280;30602;51.060;17.226;2023-09-30T07:51:57;102188.98;;;16.59;93.73
44872;BME280;30602;51.060;17.226;2023-09-30T07:56:02;102192.24;;;16.55;93.82
44872;BME280;30602;51.060;17.226;2023-09-30T08:00:10;102190.63;;;16.58;94.14
44872;BME280;30602;51.060;17.226;2023-09-30T08:03:33;102190.54;;;16.53;94.50
44872;BME280;30602;51.060;17.226;2023-09-30T08:07:02;102193.49;;;16.41;96.11
44872;BME280;30602;51.060;17.226;2023-09-30T08:11:00;102204.84;;;16.33;97.02
44872;BME280;30602;51.060;17.226;2023-09-30T08:14:26;102193.24;;;16.28;93.85
44872;BME280;30602;51.060;17.226;2023-09-30T08:18:19;102196.91;;;16.23;92.05
44872;BME280;30602;51.060;17.226;2023-09-30T08:22:03;102210.48;;;16.29;92.58
44872;BME280;30602;51.060;17.226;2023-09-30T08:25:26;102215.45;;;16.23;88.26
44872;BME280;30602;51.060;17.226;2023-09-30T08:29:22;102219.98;;;16.22;87.15
44872;BME280;30602;51.060;17.226;2023-09-30T08:33:09;102223.92;;;16.22;85.97
44872;BME280;30602;51.060;17.226;2023-09-30T08:37:03;102231.85;;;16.25;84.01
44872;BME280;30602;51.060;17.226;2023-09-30T08:40:56;102233.67;;;16.36;82.98
44872;BME280;30602;51.060;17.226;2023-09-30T08:44:20;102241.00;;;16.55;83.24
44872;BME280;30602;51.060;17.226;2023-09-30T08:47:42;102254.02;;;16.64;82.56
44872;BME280;30602;51.060;17.226;2023-09-30T08:51:02;102255.66;;;16.74;81.32
44872;BME280;30602;51.060;17.226;2023-09-30T08:54:46;102257.55;;;16.81;79.95
44872;BME280;30602;51.060;17.226;2023-09-30T08:58:34;102257.83;;;16.93;79.97
44872;BME280;30602;51.060;17.226;2023-09-30T09:02:15;102256.92;;;17.17;81.88
44872;BME280;30602;51.060;17.226;2023-09-30T09:06:06;102261.15;;;17.19;79.36
44872;BME280;30602;51.060;17.226;2023-09-30T09:13:14;102272.66;;;17.50;78.55
44872;BME280;30602;51.060;17.226;2023-09-30T09:17:44;102285.16;;;17.40;76.75
44872;BME280;30602;51.060;17.226;2023-09-30T09:21:14;102282.02;;;17.53;77.70
44872;BME280;30602;51.060;17.226;2023-09-30T09:25:09;102291.27;;;17.33;76.28
44872;BME280;30602;51.060;17.226;2023-09-30T09:28:55;102300.65;;;17.06;75.73
44872;BME280;30602;51.060;17.226;2023-09-30T09:32:59;102304.16;;;17.19;75.16
44872;BME280;30602;51.060;17.226;2023-09-30T09:36:44;102301.59;;;17.32;72.95
44872;BME280;30602;51.060;17.226;2023-09-30T09:40:12;102294.95;;;17.58;71.40
44872;BME280;30602;51.060;17.226;2023-09-30T09:43:44;102292.43;;;17.77;71.68
44872;BME280;30602;51.060;17.226;2023-09-30T09:47:07;102297.15;;;17.52;71.67
44872;BME280;30602;51.060;17.226;2023-09-30T09:51:09;102295.94;;;17.47;69.33
44872;BME280;30602;51.060;17.226;2023-09-30T09:59:32;102307.94;;;17.38;64.60
44872;BME280;30602;51.060;17.226;2023-09-30T10:03:17;102308.79;;;17.23;68.24
44872;BME280;30602;51.060;17.226;2023-09-30T10:07:00;102304.19;;;17.22;67.46
44872;BME280;30602;51.060;17.226;2023-09-30T10:10:44;102305.95;;;17.30;67.44
44872;BME280;30602;51.060;17.226;2023-09-30T10:18:12;102304.05;;;17.53;68.30
44872;BME280;30602;51.060;17.226;2023-09-30T10:26:15;102283.32;;;17.77;65.55
44872;BME280;30602;51.060;17.226;2023-09-30T10:29:41;102287.82;;;17.81;62.11
44872;BME280;30602;51.060;17.226;2023-09-30T10:33:08;102284.58;;;17.81;63.17
44872;BME280;30602;51.060;17.226;2023-09-30T10:36:46;102284.09;;;17.81;61.69
44872;BME280;30602;51.060;17.226;2023-09-30T10:40:28;102287.97;;;17.86;62.06
44872;BME280;30602;51.060;17.226;2023-09-30T10:52:23;102301.32;;;17.67;64.43
44872;BME280;30602;51.060;17.226;2023-09-30T10:56:34;102299.41;;;17.71;65.44
44872;BME280;30602;51.060;17.226;2023-09-30T11:00:14;102301.19;;;17.85;63.15
44872;BME280;30602;51.060;17.226;2023-09-30T11:08:11;102315.87;;;17.58;58.57
44872;BME280;30602;51.060;17.226;2023-09-30T11:15:28;102319.23;;;17.67;60.30
44872;BME280;30602;51.060;17.226;2023-09-30T11:19:09;102323.67;;;17.81;59.98
44872;BME280;30602;51.060;17.226;2023-09-30T11:22:56;102320.46;;;17.88;58.16
44872;BME280;30602;51.060;17.226;2023-09-30T11:30:12;102308.91;;;17.83;57.24
44872;BME280;30602;51.060;17.226;2023-09-30T11:37:34;102317.84;;;17.88;57.11
44872;BME280;30602;51.060;17.226;2023-09-30T11:42:01;102312.23;;;17.91;56.19
44872;BME280;30602;51.060;17.226;2023-09-30T11:45:37;102315.27;;;17.88;55.59
44872;BME280;30602;51.060;17.226;2023-09-30T11:49:00;102316.06;;;17.85;56.42
44872;BME280;30602;51.060;17.226;2023-09-30T11:53:05;102318.17;;;17.80;57.00
44872;BME280;30602;51.060;17.226;2023-09-30T11:57:01;102309.55;;;17.98;59.57
44872;BME280;30602;51.060;17.226;2023-09-30T12:01:01;102312.62;;;18.04;62.11
44872;BME280;30602;51.060;17.226;2023-09-30T12:04:48;102319.82;;;17.97;59.21
44872;BME280;30602;51.060;17.226;2023-09-30T12:08:10;102313.49;;;17.91;58.48
44872;BME280;30602;51.060;17.226;2023-09-30T12:11:34;102315.64;;;17.95;59.48
44872;BME280;30602;51.060;17.226;2023-09-30T12:15:14;102319.17;;;18.10;59.48
44872;BME280;30602;51.060;17.226;2023-09-30T12:19:11;102328.08;;;17.99;58.68
44872;BME280;30602;51.060;17.226;2023-09-30T12:22:39;102322.17;;;17.72;58.93
44872;BME280;30602;51.060;17.226;2023-09-30T12:26:01;102316.23;;;17.73;59.16
44872;BME280;30602;51.060;17.226;2023-09-30T12:29:44;102323.42;;;17.64;59.21
44872;BME280;30602;51.060;17.226;2023-09-30T12:33:53;102312.63;;;17.74;61.24
44872;BME280;30602;51.060;17.226;2023-09-30T12:41:31;102314.44;;;17.86;61.02
44872;BME280;30602;51.060;17.226;2023-09-30T12:45:13;102316.62;;;17.83;60.35
44872;BME280;30602;51.060;17.226;2023-09-30T12:49:11;102311.46;;;17.90;59.98
44872;BME280;30602;51.060;17.226;2023-09-30T12:52:44;102316.44;;;18.10;60.18
44872;BME280;30602;51.060;17.226;2023-09-30T12:56:28;102318.90;;;18.07;57.70
44872;BME280;30602;51.060;17.226;2023-09-30T13:00:36;102324.14;;;18.15;57.92
44872;BME280;30602;51.060;17.226;2023-09-30T13:08:42;102315.74;;;18.00;57.75
44872;BME280;30602;51.060;17.226;2023-09-30T13:12:26;102316.83;;;18.36;58.97
44872;BME280;30602;51.060;17.226;2023-09-30T13:15:48;102314.72;;;18.29;58.74
44872;BME280;30602;51.060;17.226;2023-09-30T13:19:29;102312.77;;;18.13;59.08
44872;BME280;30602;51.060;17.226;2023-09-30T13:23:35;102313.16;;;18.17;56.81
44872;BME280;30602;51.060;17.226;2023-09-30T13:26:57;102311.80;;;18.08;56.03
44872;BME280;30602;51.060;17.226;2023-09-30T13:31:06;102313.40;;;18.22;56.69
44872;BME280;30602;51.060;17.226;2023-09-30T13:35:10;102307.66;;;18.20;56.77
44872;BME280;30602;51.060;17.226;2023-09-30T13:38:34;102303.11;;;18.35;56.23
44872;BME280;30602;51.060;17.226;2023-09-30T13:41:59;102307.65;;;18.35;54.97
44872;BME280;30602;51.060;17.226;2023-09-30T13:45:40;102314.43;;;18.27;54.23
44872;BME280;30602;51.060;17.226;2023-09-30T13:49:26;102310.41;;;18.25;55.03
44872;BME280;30602;51.060;17.226;2023-09-30T13:53:11;102314.58;;;18.35;54.25
44872;BME280;30602;51.060;17.226;2023-09-30T14:00:33;102311.73;;;18.34;54.81
44872;BME280;30602;51.060;17.226;2023-09-30T14:04:09;102313.71;;;18.27;54.53
44872;BME280;30602;51.060;17.226;2023-09-30T14:08:13;102309.27;;;18.30;53.51
44872;BME280;30602;51.060;17.226;2023-09-30T14:12:09;102310.57;;;18.36;54.20
44872;BME280;30602;51.060;17.226;2023-09-30T14:15:33;102315.71;;;18.29;55.46
44872;BME280;30602;51.060;17.226;2023-09-30T14:19:07;102318.45;;;18.08;54.97
44872;BME280;30602;51.060;17.226;2023-09-30T14:22:51;102315.26;;;17.92;55.91
44872;BME280;30602;51.060;17.226;2023-09-30T14:26:17;102315.71;;;17.75;56.46
44872;BME280;30602;51.060;17.226;2023-09-30T14:30:01;102322.04;;;17.61;56.42
44872;BME280;30602;51.060;17.226;2023-09-30T14:34:31;102325.70;;;17.36;56.89
44872;BME280;30602;51.060;17.226;2023-09-30T14:38:06;102323.66;;;17.34;58.40
44872;BME280;30602;51.060;17.226;2023-09-30T14:41:33;102326.37;;;17.39;58.24
44872;BME280;30602;51.060;17.226;2023-09-30T14:46:03;102318.74;;;17.35;58.18
44872;BME280;30602;51.060;17.226;2023-09-30T14:49:43;102317.53;;;17.40;57.21
44872;BME280;30602;51.060;17.226;2023-09-30T14:53:29;102313.09;;;17.33;57.41
44872;BME280;30602;51.060;17.226;2023-09-30T14:57:06;102317.27;;;17.27;58.28
44872;BME280;30602;51.060;17.226;2023-09-30T15:00:43;102325.77;;;17.21;58.08
44872;BME280;30602;51.060;17.226;2023-09-30T15:04:39;102327.93;;;17.23;58.32
44872;BME280;30602;51.060;17.226;2023-09-30T15:08:25;102322.38;;;17.30;58.47
44872;BME280;30602;51.060;17.226;2023-09-30T15:16:33;102327.79;;;17.25;58.39
44872;BME280;30602;51.060;17.226;2023-09-30T15:20:18;102328.27;;;17.15;59.20
44872;BME280;30602;51.060;17.226;2023-09-30T15:23:58;102327.29;;;17.10;60.16
44872;BME280;30602;51.060;17.226;2023-09-30T15:27:36;102331.78;;;17.01;60.04
44872;BME280;30602;51.060;17.226;2023-09-30T15:30:58;102339.29;;;16.95;60.56
44872;BME280;30602;51.060;17.226;2023-09-30T15:34:21;102336.92;;;16.92;61.08
44872;BME280;30602;51.060;17.226;2023-09-30T15:38:28;102335.90;;;16.95;61.45
44872;BME280;30602;51.060;17.226;2023-09-30T15:42:15;102345.89;;;16.96;61.34
44872;BME280;30602;51.060;17.226;2023-09-30T15:45:49;102337.95;;;16.87;62.16
44872;BME280;30602;51.060;17.226;2023-09-30T15:49:47;102347.71;;;16.78;62.71
44872;BME280;30602;51.060;17.226;2023-09-30T15:53:12;102360.24;;;16.74;62.89
44872;BME280;30602;51.060;17.226;2023-09-30T15:57:12;102350.11;;;16.62;63.67
44872;BME280;30602;51.060;17.226;2023-09-30T16:04:26;102367.37;;;16.43;64.85
44872;BME280;30602;51.060;17.226;2023-09-30T16:08:31;102368.60;;;16.38;64.02
44872;BME280;30602;51.060;17.226;2023-09-30T16:12:15;102366.24;;;16.44;66.29
44872;BME280;30602;51.060;17.226;2023-09-30T16:19:51;102369.94;;;16.06;64.74
44872;BME280;30602;51.060;17.226;2023-09-30T16:23:14;102378.30;;;15.93;66.03
44872;BME280;30602;51.060;17.226;2023-09-30T16:27:44;102376.98;;;15.80;66.81
44872;BME280;30602;51.060;17.226;2023-09-30T16:32:10;102382.33;;;15.74;66.36
44872;BME280;30602;51.060;17.226;2023-09-30T16:35:53;102391.89;;;15.68;66.48
44872;BME280;30602;51.060;17.226;2023-09-30T16:39:37;102388.41;;;15.71;66.86
44872;BME280;30602;51.060;17.226;2023-09-30T16:43:03;102369.63;;;15.61;67.22
44872;BME280;30602;51.060;17.226;2023-09-30T16:46:40;102382.98;;;15.63;67.17
44872;BME280;30602;51.060;17.226;2023-09-30T16:50:32;102385.69;;;15.45;67.97
44872;BME280;30602;51.060;17.226;2023-09-30T16:54:17;102388.19;;;15.32;69.08
44872;BME280;30602;51.060;17.226;2023-09-30T16:58:03;102383.91;;;15.16;72.43
44872;BME280;30602;51.060;17.226;2023-09-30T17:02:12;102386.70;;;14.84;74.90
44872;BME280;30602;51.060;17.226;2023-09-30T17:05:56;102374.04;;;14.44;76.64
44872;BME280;30602;51.060;17.226;2023-09-30T17:09:20;102384.39;;;14.13;78.92
44872;BME280;30602;51.060;17.226;2023-09-30T17:12:43;102395.48;;;13.96;81.34
44872;BME280;30602;51.060;17.226;2023-09-30T17:17:05;102391.60;;;13.83;82.56
44872;BME280;30602;51.060;17.226;2023-09-30T17:21:02;102399.69;;;13.48;83.15
44872;BME280;30602;51.060;17.226;2023-09-30T17:24:37;102398.62;;;13.30;83.97
44872;BME280;30602;51.060;17.226;2023-09-30T17:28:33;102410.09;;;13.19;84.83
44872;BME280;30602;51.060;17.226;2023-09-30T17:32:12;102413.91;;;13.00;85.87
44872;BME280;30602;51.060;17.226;2023-09-30T17:35:48;102412.98;;;12.95;86.81
44872;BME280;30602;51.060;17.226;2023-09-30T17:39:45;102420.59;;;12.78;87.64
44872;BME280;30602;51.060;17.226;2023-09-30T17:43:30;102418.77;;;12.69;87.85
44872;BME280;30602;51.060;17.226;2023-09-30T17:47:14;102416.06;;;12.61;88.47
44872;BME280;30602;51.060;17.226;2023-09-30T17:50:39;102422.51;;;12.47;88.90
44872;BME280;30602;51.060;17.226;2023-09-30T17:54:38;102427.67;;;12.42;89.96
44872;BME280;30602;51.060;17.226;2023-09-30T17:58:02;102431.07;;;12.31;90.97
44872;BME280;30602;51.060;17.226;2023-09-30T18:01:38;102434.84;;;12.36;90.92
44872;BME280;30602;51.060;17.226;2023-09-30T18:05:39;102437.22;;;12.26;90.84
44872;BME280;30602;51.060;17.226;2023-09-30T18:09:23;102437.16;;;12.11;89.79
44872;BME280;30602;51.060;17.226;2023-09-30T18:13:24;102436.63;;;11.94;90.31
44872;BME280;30602;51.060;17.226;2023-09-30T18:16:55;102436.81;;;11.93;91.38
44872;BME280;30602;51.060;17.226;2023-09-30T18:20:42;102446.19;;;11.88;91.91
44872;BME280;30602;51.060;17.226;2023-09-30T18:24:22;102453.02;;;11.76;92.13
44872;BME280;30602;51.060;17.226;2023-09-30T18:28:01;102451.23;;;11.69;92.44
44872;BME280;30602;51.060;17.226;2023-09-30T18:31:28;102450.57;;;11.67;93.35
44872;BME280;30602;51.060;17.226;2023-09-30T18:35:10;102446.87;;;11.51;93.61
44872;BME280;30602;51.060;17.226;2023-09-30T18:38:51;102447.28;;;11.57;93.95
44872;BME280;30602;51.060;17.226;2023-09-30T18:46:20;102449.61;;;11.33;93.44
44872;BME280;30602;51.060;17.226;2023-09-30T18:49:58;102452.88;;;11.23;93.73
44872;BME280;30602;51.060;17.226;2023-09-30T18:53:49;102449.17;;;11.26;94.98
44872;BME280;30602;51.060;17.226;2023-09-30T18:57:34;102455.01;;;11.24;95.54
44872;BME280;30602;51.060;17.226;2023-09-30T19:01:15;102456.30;;;11.13;95.90
44872;BME280;30602;51.060;17.226;2023-09-30T19:05:34;102454.88;;;11.07;95.74
44872;BME280;30602;51.060;17.226;2023-09-30T19:09:29;102452.36;;;10.84;95.85
44872;BME280;30602;51.060;17.226;2023-09-30T19:13:48;102462.77;;;10.84;95.38
44872;BME280;30602;51.060;17.226;2023-09-30T19:17:32;102461.18;;;10.93;96.64
44872;BME280;30602;51.060;17.226;2023-09-30T19:21:27;102463.10;;;10.93;96.51
44872;BME280;30602;51.060;17.226;2023-09-30T19:24:58;102465.78;;;10.79;96.06
44872;BME280;30602;51.060;17.226;2023-09-30T19:28:51;102466.06;;;10.71;96.46
44872;BME280;30602;51.060;17.226;2023-09-30T19:32:23;102467.81;;;10.64;96.18
44872;BME280;30602;51.060;17.226;2023-09-30T19:36:13;102466.42;;;10.73;97.33
44872;BME280;30602;51.060;17.226;2023-09-30T19:41:03;102467.32;;;10.71;97.63
44872;BME280;30602;51.060;17.226;2023-09-30T19:45:03;102469.30;;;10.69;98.14
44872;BME280;30602;51.060;17.226;2023-09-30T19:48:42;102469.27;;;10.55;97.32
44872;BME280;30602;51.060;17.226;2023-09-30T19:52:50;102474.70;;;10.38;96.41
44872;BME280;30602;51.060;17.226;2023-09-30T19:56:41;102487.23;;;10.33;96.67
44872;BME280;30602;51.060;17.226;2023-09-30T20:01:12;102488.80;;;10.24;95.83
44872;BME280;30602;51.060;17.226;2023-09-30T20:05:33;102485.09;;;10.39;98.41
44872;BME280;30602;51.060;17.226;2023-09-30T20:09:08;102492.92;;;10.07;95.26
44872;BME280;30602;51.060;17.226;2023-09-30T20:13:16;102490.66;;;9.85;95.91
44872;BME280;30602;51.060;17.226;2023-09-30T20:17:04;102487.37;;;9.91;97.83
44872;BME280;30602;51.060;17.226;2023-09-30T20:20:29;102484.81;;;9.98;98.68
44872;BME280;30602;51.060;17.226;2023-09-30T20:24:25;102487.04;;;10.01;99.28
44872;BME280;30602;51.060;17.226;2023-09-30T20:28:18;102486.17;;;9.86;98.53
44872;BME280;30602;51.060;17.226;2023-09-30T20:31:46;102477.39;;;9.89;97.83
44872;BME280;30602;51.060;17.226;2023-09-30T20:35:12;102474.54;;;9.91;98.26
44872;BME280;30602;51.060;17.226;2023-09-30T20:38:58;102474.89;;;9.88;98.56
44872;BME280;30602;51.060;17.226;2023-09-30T20:42:45;102474.50;;;9.89;98.69